Time;durP1;ratioP1;P1;durP2;ratioP2;P2;SDS_P1;SDS_P2;PMS_P1;PMS_P2;Temp;Humidity;BMP_temperature;BMP_pressure;BME280_temperature;BME280_humidity;BME280_pressure;Samples;Min_cycle;Max_cycle;Signal;HPM_P1;HPM_P2
2024/01/23 00:00:18;;;;;;;4.85;1.05;;;;;;;5.76;100.00;97845.41;5050148;28;20056;-64
2024/01/23 00:02:45;;;;;;;4.00;1.00;;;;;;;5.85;100.00;97852.19;5037434;28;20037;-63
2024/01/23 00:05:11;;;;;;;5.25;0.90;;;;;;;5.87;100.00;97863.59;5053076;28;20036;-63
2024/01/23 00:07:38;;;;;;;3.85;1.13;;;;;;;5.91;100.00;97854.06;5036630;28;20045;-64
2024/01/23 00:10:05;;;;;;;2.75;0.60;;;;;;;5.94;100.00;97858.19;5050852;28;20052;-64
2024/01/23 00:12:31;;;;;;;8.15;1.25;;;;;;;5.90;100.00;97854.28;5035795;28;20103;-64
2024/01/23 00:14:58;;;;;;;5.10;0.85;;;;;;;5.84;100.00;97842.50;5036846;28;20033;-64
2024/01/23 00:17:25;;;;;;;4.72;0.98;;;;;;;5.88;100.00;97845.56;5031639;28;20036;-64
2024/01/23 00:19:53;;;;;;;4.30;0.82;;;;;;;5.79;100.00;97843.09;5036146;28;20044;-64
2024/01/23 00:22:20;;;;;;;5.45;0.93;;;;;;;5.75;100.00;97847.25;5037179;28;20076;-63
2024/01/23 00:24:46;;;;;;;6.00;0.80;;;;;;;5.75;100.00;97841.88;5048543;28;20037;-64
2024/01/23 00:27:13;;;;;;;4.53;1.17;;;;;;;5.81;100.00;97849.13;5039738;28;20048;-63
2024/01/23 00:29:39;;;;;;;6.28;0.98;;;;;;;5.90;100.00;97838.94;5040117;28;20404;-64
2024/01/23 00:32:06;;;;;;;4.10;0.80;;;;;;;5.85;100.00;97841.44;5049346;28;20045;-64
2024/01/23 00:34:32;;;;;;;3.47;0.63;;;;;;;5.83;100.00;97843.53;5039016;28;20045;-64
2024/01/23 00:37:01;;;;;;;7.22;1.20;;;;;;;5.65;100.00;97838.78;5047968;28;20045;-64
2024/01/23 00:39:27;;;;;;;3.17;0.70;;;;;;;5.76;100.00;97845.41;5037990;28;20650;-64
2024/01/23 00:41:54;;;;;;;4.22;0.90;;;;;;;5.82;100.00;97831.94;5044638;28;20037;-64
2024/01/23 00:44:21;;;;;;;5.20;1.02;;;;;;;5.79;100.00;97861.09;5054397;28;20040;-64
2024/01/23 00:46:47;;;;;;;6.70;1.00;;;;;;;5.85;100.00;97847.66;5038712;28;20048;-63
2024/01/23 00:49:14;;;;;;;4.43;0.93;;;;;;;5.86;100.00;97875.34;5036371;28;20037;-64
2024/01/23 00:51:40;;;;;;;4.47;0.90;;;;;;;5.86;100.00;97859.22;5052152;28;20069;-64
2024/01/23 00:54:07;;;;;;;3.92;0.90;;;;;;;5.93;100.00;97870.00;5031508;28;20386;-63
2024/01/23 00:56:35;;;;;;;4.85;0.80;;;;;;;5.89;100.00;97858.81;5041875;28;20059;-63
2024/01/23 00:59:01;;;;;;;2.67;0.88;;;;;;;5.87;100.00;97877.03;5038733;28;20040;-63
2024/01/23 01:01:28;;;;;;;8.60;1.17;;;;;;;5.92;100.00;97860.25;5038369;28;20062;-64
2024/01/23 01:03:55;;;;;;;4.30;0.93;;;;;;;5.91;100.00;97864.81;5056134;28;20075;-63
2024/01/23 01:06:22;;;;;;;6.03;1.02;;;;;;;5.91;100.00;97878.25;5037520;28;20863;-64
2024/01/23 01:08:49;;;;;;;7.00;1.20;;;;;;;5.79;100.00;97880.72;5040458;28;20038;-63
2024/01/23 01:11:15;;;;;;;2.90;0.95;;;;;;;5.83;100.00;97878.47;5043374;28;20076;-63
2024/01/23 01:13:42;;;;;;;5.45;1.38;;;;;;;5.77;100.00;97884.66;5045416;28;20128;-63
2024/01/23 01:16:08;;;;;;;7.57;0.90;;;;;;;5.57;100.00;97889.00;5036055;28;20127;-62
2024/01/23 01:18:36;;;;;;;5.07;0.60;;;;;;;5.68;100.00;97889.44;5029603;28;20042;-64
2024/01/23 01:21:03;;;;;;;3.47;1.17;;;;;;;5.62;100.00;97890.25;5030384;28;20046;-63
2024/01/23 01:23:30;;;;;;;6.85;0.80;;;;;;;5.52;100.00;97874.53;5040575;28;20079;-63
2024/01/23 01:25:56;;;;;;;3.58;1.02;;;;;;;5.46;100.00;97886.97;5044078;28;20045;-64
2024/01/23 01:28:23;;;;;;;3.10;0.77;;;;;;;5.39;100.00;97870.00;5033284;28;20550;-63
2024/01/23 01:30:49;;;;;;;2.80;0.82;;;;;;;5.32;100.00;97881.59;5034278;28;20043;-65
2024/01/23 01:33:17;;;;;;;4.75;0.80;;;;;;;5.19;100.00;97884.22;5034155;28;20045;-63
2024/01/23 01:35:44;;;;;;;6.20;1.00;;;;;;;4.93;100.00;97902.78;5045532;28;20558;-63
2024/01/23 01:38:11;;;;;;;7.28;1.08;;;;;;;4.88;100.00;97910.59;5046816;28;20087;-63
2024/01/23 01:40:37;;;;;;;5.20;0.90;;;;;;;4.78;100.00;97932.44;5046404;28;20055;-62
2024/01/23 01:43:04;;;;;;;11.05;2.47;;;;;;;4.85;100.00;97934.31;5045383;28;20056;-63
2024/01/23 01:45:30;;;;;;;9.15;1.45;;;;;;;4.82;100.00;97931.03;5036764;28;20110;-63
2024/01/23 01:47:57;;;;;;;7.18;0.88;;;;;;;4.76;100.00;97934.50;5039712;28;20045;-63
2024/01/23 01:50:24;;;;;;;5.13;0.98;;;;;;;4.94;100.00;97915.16;5034204;28;20057;-63
2024/01/23 01:52:51;;;;;;;9.07;1.83;;;;;;;4.96;100.00;97925.69;5038099;28;20076;-62
2024/01/23 01:55:18;;;;;;;5.55;1.50;;;;;;;5.01;100.00;97923.22;5053601;28;20047;-63
2024/01/23 01:57:45;;;;;;;4.80;1.08;;;;;;;5.10;100.00;97933.78;5028980;28;20612;-63
2024/01/23 02:00:12;;;;;;;12.00;2.08;;;;;;;5.12;100.00;97929.06;5037070;28;20095;-63
2024/01/23 02:02:42;;;;;;;8.98;1.00;;;;;;;5.11;100.00;97935.44;5044834;28;20051;-62
2024/01/23 02:05:08;;;;;;;8.30;1.40;;;;;;;5.10;100.00;97926.56;5039433;28;20082;-63
2024/01/23 02:07:36;;;;;;;4.25;0.95;;;;;;;5.12;100.00;97935.22;5046366;28;20120;-63
2024/01/23 02:10:02;;;;;;;7.15;1.45;;;;;;;5.17;100.00;97940.00;5036531;28;20037;-63
2024/01/23 02:12:29;;;;;;;5.45;1.23;;;;;;;5.10;100.00;97925.72;5034572;28;20056;-63
2024/01/23 02:26:55;;;;;;;6.93;1.88;;;;;;;5.04;100.00;97943.47;5030543;28;19939;-62
2024/01/23 02:29:21;;;;;;;7.55;1.48;;;;;;;4.97;100.00;97948.81;5034261;28;20048;-63
2024/01/23 02:31:48;;;;;;;7.30;1.15;;;;;;;5.04;100.00;97938.09;5028476;28;20037;-63
2024/01/23 02:34:14;;;;;;;16.70;1.60;;;;;;;5.04;100.00;97943.47;5045601;28;20528;-62
2024/01/23 02:36:43;;;;;;;7.00;1.38;;;;;;;4.95;100.00;97937.47;5042204;28;20049;-62
2024/01/23 02:39:10;;;;;;;8.23;1.42;;;;;;;4.98;100.00;97934.38;5033825;28;20049;-62
2024/01/23 02:41:38;;;;;;;5.10;1.40;;;;;;;4.97;100.00;97932.72;5039385;28;20642;-62
2024/01/23 02:44:04;;;;;;;8.63;1.58;;;;;;;5.00;100.00;97928.78;5039486;28;20049;-62
2024/01/23 02:46:31;;;;;;;5.60;1.23;;;;;;;5.08;100.00;97923.25;5036998;28;20040;-62
2024/01/23 02:48:58;;;;;;;9.57;1.58;;;;;;;5.02;100.00;97927.56;5040311;28;20041;-62
2024/01/23 02:51:24;;;;;;;10.23;2.00;;;;;;;5.18;100.00;97938.97;5027876;28;20144;-63
2024/01/23 02:53:51;;;;;;;7.80;1.50;;;;;;;5.21;100.00;97950.13;5040775;28;20536;-63
2024/01/23 02:56:17;;;;;;;8.85;1.63;;;;;;;5.16;100.00;97959.81;5046545;28;20037;-63
2024/01/23 02:58:44;;;;;;;11.90;1.30;;;;;;;5.25;100.00;97952.41;5036961;28;20047;-63
2024/01/23 03:01:10;;;;;;;7.80;1.40;;;;;;;5.27;100.00;97943.09;5034199;28;20049;-63
2024/01/23 03:03:37;;;;;;;10.23;1.77;;;;;;;5.16;100.00;97936.47;5022720;28;20057;-63
2024/01/23 03:06:04;;;;;;;6.93;1.60;;;;;;;5.19;100.00;97937.94;5039271;28;20037;-63
2024/01/23 03:08:30;;;;;;;15.43;2.13;;;;;;;5.27;100.00;97953.84;5032558;28;20409;-62
2024/01/23 03:10:57;;;;;;;8.90;1.48;;;;;;;5.30;100.00;97945.41;5033593;28;20148;-63
2024/01/23 03:13:23;;;;;;;13.48;1.58;;;;;;;5.36;100.00;97945.59;5032400;28;20048;-63
2024/01/23 03:15:52;;;;;;;10.13;1.65;;;;;;;5.29;100.00;97954.50;5034217;28;20110;-63
2024/01/23 03:18:19;;;;;;;9.60;1.30;;;;;;;5.28;100.00;97965.44;5027413;28;20038;-62
2024/01/23 03:20:46;;;;;;;11.20;1.30;;;;;;;5.33;100.00;97969.16;5034031;28;20041;-62
2024/01/23 03:23:13;;;;;;;8.52;1.38;;;;;;;5.32;100.00;97975.56;5038302;28;20041;-63
2024/01/23 03:25:39;;;;;;;7.20;1.52;;;;;;;5.41;100.00;97975.34;5033356;28;20041;-63
2024/01/23 03:28:05;;;;;;;7.63;1.20;;;;;;;5.43;100.00;97978.69;5038754;28;20041;-62
2024/01/23 03:30:32;;;;;;;10.50;1.52;;;;;;;5.46;100.00;97989.03;5039327;28;20057;-63
2024/01/23 03:32:59;;;;;;;10.25;1.25;;;;;;;5.41;100.00;98002.22;5028768;28;20636;-63
2024/01/23 03:35:26;;;;;;;5.15;1.63;;;;;;;5.42;100.00;97998.53;5039664;28;20041;-62
2024/01/23 03:37:53;;;;;;;7.55;1.33;;;;;;;5.54;100.00;98006.81;5042521;28;20091;-63
2024/01/23 03:40:20;;;;;;;5.93;1.17;;;;;;;5.63;100.00;98013.63;5044522;28;20047;-63
2024/01/23 03:42:46;;;;;;;8.23;1.42;;;;;;;5.64;100.00;98030.59;5036903;28;20416;-63
2024/01/23 03:45:13;;;;;;;11.73;1.63;;;;;;;5.58;100.00;98030.38;5037818;28;20045;-63
2024/01/23 03:47:39;;;;;;;7.38;1.58;;;;;;;5.63;100.00;98029.75;5031560;28;20046;-63
2024/01/23 03:50:06;;;;;;;6.03;1.13;;;;;;;5.65;100.00;98026.88;5049346;28;20041;-62
2024/01/23 03:52:33;;;;;;;11.20;1.75;;;;;;;5.70;100.00;98032.44;5032376;28;20052;-62
2024/01/23 03:55:00;;;;;;;8.82;1.52;;;;;;;5.70;100.00;98027.06;5033739;28;20124;-63
2024/01/23 03:57:26;;;;;;;9.27;1.10;;;;;;;5.64;100.00;98023.34;5033900;28;20504;-63
2024/01/23 03:59:53;;;;;;;7.68;1.80;;;;;;;5.60;100.00;98022.94;5037175;28;20057;-63
2024/01/23 04:02:24;;;;;;;14.00;2.00;;;;;;;5.63;100.00;98028.94;5046445;28;20052;-63
2024/01/23 04:04:52;;;;;;;7.07;1.27;;;;;;;5.64;100.00;98035.97;5036435;28;20120;-63
2024/01/23 04:07:18;;;;;;;13.27;1.40;;;;;;;5.64;100.00;98036.78;5039532;28;20052;-62
2024/01/23 04:09:45;;;;;;;7.05;1.52;;;;;;;5.58;100.00;98035.75;5038963;28;20934;-62
2024/01/23 04:12:12;;;;;;;5.80;1.55;;;;;;;5.65;100.00;98046.50;5052124;28;20044;-63
2024/01/23 04:14:40;;;;;;;15.65;1.80;;;;;;;5.63;100.00;98064.69;5048887;28;20063;-63
2024/01/23 04:17:07;;;;;;;8.32;1.50;;;;;;;5.64;100.00;98038.66;5039760;28;20068;-62
2024/01/23 04:19:35;;;;;;;10.18;1.63;;;;;;;5.65;100.00;98046.50;5051573;28;20040;-63
2024/01/23 04:22:02;;;;;;;9.52;1.83;;;;;;;5.58;100.00;98054.56;5036269;28;20037;-63
2024/01/23 04:24:28;;;;;;;11.02;1.65;;;;;;;5.56;100.00;98064.66;5056806;28;20048;-62
2024/01/23 04:26:55;;;;;;;9.40;1.42;;;;;;;5.54;100.00;98068.59;5041542;28;20041;-63
2024/01/23 04:29:21;;;;;;;17.00;2.90;;;;;;;5.52;100.00;98067.94;5042478;28;20045;-63
2024/01/23 04:31:48;;;;;;;12.23;1.80;;;;;;;5.48;100.00;98078.28;5039277;28;20043;-63
2024/01/23 04:34:15;;;;;;;4.68;0.90;;;;;;;5.38;100.00;98081.34;5041181;28;20037;-63
2024/01/23 04:36:41;;;;;;;9.60;1.42;;;;;;;5.32;100.00;98100.94;5039254;28;20037;-63
2024/01/23 04:39:08;;;;;;;10.82;1.45;;;;;;;5.39;100.00;98085.69;5040727;28;20087;-63
2024/01/23 04:41:34;;;;;;;7.32;1.15;;;;;;;5.33;100.00;98090.00;5034793;28;20084;-64
2024/01/23 04:44:01;;;;;;;3.95;0.88;;;;;;;5.25;100.00;98100.06;5040193;28;20037;-63
2024/01/23 04:46:27;;;;;;;6.00;1.30;;;;;;;5.27;100.00;98112.28;5040646;28;20057;-63
2024/01/23 04:48:54;;;;;;;6.18;1.00;;;;;;;5.26;100.00;98123.22;5033622;28;20061;-64
2024/01/23 04:51:21;;;;;;;8.98;1.30;;;;;;;5.31;100.00;98116.22;5037634;28;20037;-64
2024/01/23 04:53:51;;;;;;;5.60;1.23;;;;;;;5.33;100.00;98102.59;5042606;28;20098;-64
2024/01/23 04:56:18;;;;;;;10.70;1.35;;;;;;;5.28;100.00;98113.13;5038782;28;20064;-63
2024/01/23 04:58:45;;;;;;;7.00;1.58;;;;;;;5.24;100.00;98111.84;5036645;28;21958;-63
2024/01/23 05:01:12;;;;;;;4.85;0.93;;;;;;;5.07;100.00;98104.13;5044002;28;20045;-64
2024/01/23 05:03:39;;;;;;;6.22;1.08;;;;;;;4.97;100.00;98098.28;5038223;28;20536;-64
2024/01/23 05:06:06;;;;;;;5.07;0.80;;;;;;;4.93;100.00;98103.22;5049581;28;20048;-64
2024/01/23 05:08:32;;;;;;;4.85;1.30;;;;;;;4.85;100.00;98112.25;5048352;28;20089;-63
2024/01/23 05:10:59;;;;;;;4.80;1.23;;;;;;;4.78;100.00;98104.16;5042112;28;20523;-66
2024/01/23 05:13:25;;;;;;;4.32;0.88;;;;;;;4.60;100.00;98120.75;5031608;28;20148;-64
2024/01/23 05:15:52;;;;;;;7.85;1.42;;;;;;;4.57;100.00;98128.34;5042791;28;20051;-63
2024/01/23 05:18:18;;;;;;;5.03;0.75;;;;;;;4.51;100.00;98144.22;5033522;28;20037;-63
2024/01/23 05:20:45;;;;;;;6.50;1.38;;;;;;;4.49;100.00;98154.28;5031698;28;20293;-63
2024/01/23 05:23:11;;;;;;;3.55;0.98;;;;;;;4.46;100.00;98146.63;5043392;28;20051;-64
2024/01/23 05:25:39;;;;;;;7.15;1.20;;;;;;;4.43;100.00;98150.53;5033115;28;20059;-63
2024/01/23 05:28:05;;;;;;;6.60;0.90;;;;;;;4.30;100.00;98153.09;5038229;28;20052;-63
2024/01/23 05:30:33;;;;;;;4.95;0.90;;;;;;;4.29;100.00;98156.78;5040449;28;20047;-63
2024/01/23 05:32:59;;;;;;;6.85;1.00;;;;;;;4.25;100.00;98171.59;5045596;28;20098;-64
2024/01/23 05:35:26;;;;;;;4.90;0.90;;;;;;;4.29;100.00;98183.59;5045104;28;20049;-64
2024/01/23 05:37:52;;;;;;;4.57;0.77;;;;;;;4.29;100.00;98187.13;5051609;28;20555;-64
2024/01/23 05:40:19;;;;;;;5.75;0.98;;;;;;;4.30;100.00;98179.91;5042314;28;20619;-62
2024/01/23 05:42:46;;;;;;;5.53;0.90;;;;;;;4.37;100.00;98177.28;5038049;28;20046;-63
2024/01/23 05:45:13;;;;;;;4.47;0.85;;;;;;;4.35;100.00;98174.78;5044492;28;20492;-62
2024/01/23 05:47:39;;;;;;;9.45;1.00;;;;;;;4.36;100.00;98180.97;5041314;28;20483;-62
2024/01/23 05:50:06;;;;;;;7.15;0.88;;;;;;;4.31;100.00;98180.75;5040128;28;20116;-62
2024/01/23 05:52:33;;;;;;;8.40;1.52;;;;;;;4.34;100.00;98177.66;5042481;28;20049;-62
2024/01/23 05:55:00;;;;;;;2.10;0.25;;;;;;;4.43;100.00;98206.03;5044690;28;20045;-62
2024/01/23 05:57:27;;;;;;;8.93;0.90;;;;;;;4.42;100.00;98194.47;5041744;28;20106;-66
2024/01/23 05:59:54;;;;;;;3.25;0.90;;;;;;;4.38;100.00;98198.53;5035266;28;20048;-65
2024/01/23 06:02:21;;;;;;;8.27;1.27;;;;;;;4.38;100.00;98198.53;5040979;28;20044;-66
2024/01/23 06:04:47;;;;;;;5.10;1.35;;;;;;;4.36;100.00;98200.59;5044634;28;20040;-63
2024/01/23 06:07:14;;;;;;;12.23;0.80;;;;;;;4.35;100.00;98224.91;5044130;28;20117;-64
2024/01/23 06:09:42;;;;;;;5.68;0.88;;;;;;;4.38;100.00;98235.25;5037837;28;20045;-63
2024/01/23 06:12:09;;;;;;;5.80;1.10;;;;;;;4.34;100.00;98231.28;5044578;28;20059;-63
2024/01/23 06:14:35;;;;;;;7.68;1.20;;;;;;;4.31;100.00;98237.84;5048846;28;20053;-63
2024/01/23 06:17:02;;;;;;;4.72;0.73;;;;;;;4.32;100.00;98247.59;5043783;28;20037;-63
2024/01/23 06:19:29;;;;;;;7.53;1.73;;;;;;;4.24;100.00;98253.88;5051420;28;20072;-62
2024/01/23 06:21:56;;;;;;;6.15;1.33;;;;;;;4.27;100.00;98282.16;5033367;28;20048;-63
2024/01/23 06:24:22;;;;;;;4.85;0.95;;;;;;;4.24;100.00;98269.13;5033942;28;20045;-63
2024/01/23 06:26:49;;;;;;;5.90;1.02;;;;;;;4.16;100.00;98272.75;5039827;28;20159;-64
2024/01/23 06:29:15;;;;;;;3.00;0.73;;;;;;;4.07;100.00;98277.41;5035008;28;20048;-63
2024/01/23 06:31:43;;;;;;;5.10;0.98;;;;;;;3.96;100.00;98273.34;5046050;28;20086;-65
2024/01/23 06:34:10;;;;;;;5.18;1.30;;;;;;;3.93;100.00;98275.56;5035204;28;20639;-65
2024/01/23 06:36:38;;;;;;;7.07;0.65;;;;;;;3.88;100.00;98289.53;5038426;28;20055;-65
2024/01/23 06:39:05;;;;;;;4.53;0.75;;;;;;;3.82;100.00;98295.59;5035994;28;20037;-64
2024/01/23 06:41:32;;;;;;;5.05;0.73;;;;;;;3.83;100.00;98313.38;5039013;28;20045;-64
2024/01/23 06:43:58;;;;;;;7.72;1.48;;;;;;;3.79;100.00;98320.13;5025909;28;20447;-65
2024/01/23 06:46:25;;;;;;;2.17;0.88;;;;;;;3.76;100.00;98329.34;5037879;28;20049;-65
2024/01/23 06:48:51;;;;;;;4.00;0.93;;;;;;;3.75;100.00;98333.88;5035013;28;20120;-65
2024/01/23 06:51:20;;;;;;;8.90;1.00;;;;;;;3.77;100.00;98331.81;5028424;28;20133;-65
2024/01/23 06:53:46;;;;;;;4.65;0.90;;;;;;;3.77;100.00;98342.53;5032817;28;20129;-65
2024/01/23 06:56:13;;;;;;;9.02;1.67;;;;;;;3.70;100.00;98348.81;5038301;28;20100;-64
2024/01/23 06:58:40;;;;;;;5.28;1.25;;;;;;;3.65;100.00;98357.44;5038017;28;20046;-64
2024/01/23 07:01:06;;;;;;;6.88;1.10;;;;;;;3.62;100.00;98371.16;5028897;28;20033;-65
2024/01/23 07:03:33;;;;;;;3.90;0.98;;;;;;;3.61;100.00;98385.59;5033042;28;20050;-65
2024/01/23 07:05:59;;;;;;;4.03;0.95;;;;;;;3.66;100.00;98383.19;5038620;28;20044;-65
2024/01/23 07:08:26;;;;;;;8.27;1.58;;;;;;;3.75;100.00;98384.75;5036107;28;20060;-63
2024/01/23 07:10:53;;;;;;;6.07;1.20;;;;;;;3.72;100.00;98395.84;5040227;28;20120;-63
2024/01/23 07:13:21;;;;;;;8.43;1.73;;;;;;;3.80;100.00;98402.97;5053908;28;20041;-63
2024/01/23 07:15:47;;;;;;;3.08;0.73;;;;;;;3.82;100.00;98402.78;5039249;28;21218;-63
2024/01/23 07:18:14;;;;;;;5.40;1.13;;;;;;;3.91;100.00;98412.41;5037447;28;20041;-64
2024/01/23 07:20:41;;;;;;;5.20;1.00;;;;;;;3.91;100.00;98404.38;5042789;28;20467;-64
2024/01/23 07:23:07;;;;;;;7.68;0.98;;;;;;;3.93;100.00;98405.00;5035144;28;20052;-63
2024/01/23 07:25:34;;;;;;;4.45;1.10;;;;;;;3.92;100.00;98418.59;5041943;28;20095;-63
2024/01/23 07:28:00;;;;;;;5.60;1.10;;;;;;;3.89;100.00;98419.78;5044675;28;20106;-62
2024/01/23 07:30:27;;;;;;;7.80;1.35;;;;;;;3.86;100.00;98426.34;5044489;28;20045;-62
2024/01/23 07:32:53;;;;;;;8.70;1.40;;;;;;;3.80;100.00;98427.09;5040722;28;20049;-63
2024/01/23 07:35:20;;;;;;;14.90;1.90;;;;;;;3.77;100.00;98417.53;5051749;28;20625;-64
2024/01/23 07:37:46;;;;;;;8.93;1.40;;;;;;;3.83;100.00;98420.53;5044822;28;20045;-63
2024/01/23 07:40:14;;;;;;;7.22;1.52;;;;;;;3.89;100.00;98420.63;5031904;28;20041;-63
2024/01/23 07:42:41;;;;;;;13.80;1.45;;;;;;;3.96;100.00;98431.44;5042628;28;20053;-64
2024/01/23 07:45:08;;;;;;;8.57;1.30;;;;;;;4.01;100.00;98426.38;5048750;28;20049;-65
2024/01/23 07:47:35;;;;;;;8.13;1.70;;;;;;;4.08;100.00;98437.19;5041699;28;20089;-65
2024/01/23 07:50:02;;;;;;;12.45;1.88;;;;;;;4.14;100.00;98428.44;5032741;28;20052;-64
2024/01/23 07:52:31;;;;;;;9.25;1.30;;;;;;;4.12;100.00;98427.75;5048848;28;20048;-64
2024/01/23 07:54:58;;;;;;;10.68;1.58;;;;;;;4.15;100.00;98427.41;5037887;28;20037;-53
2024/01/23 07:57:24;;;;;;;14.18;1.65;;;;;;;4.23;100.00;98437.19;5035714;28;20575;-44
2024/01/23 07:59:51;;;;;;;8.90;1.65;;;;;;;4.33;100.00;98447.66;5037509;28;20037;-44
2024/01/23 08:02:17;;;;;;;3.38;0.98;;;;;;;4.38;100.00;98455.13;5047301;28;20037;-47
2024/01/23 08:04:44;;;;;;;9.77;1.55;;;;;;;4.41;100.00;98458.28;5052311;28;20057;-45
2024/01/23 08:07:11;;;;;;;9.32;1.40;;;;;;;4.50;100.00;98464.38;5046495;28;20040;-45
2024/01/23 08:09:38;;;;;;;6.65;1.38;;;;;;;4.57;100.00;98460.97;5040796;28;20082;-44
2024/01/23 08:12:06;;;;;;;6.78;1.40;;;;;;;4.62;100.00;98467.44;5019658;28;21135;-42
2024/01/23 08:14:32;;;;;;;4.47;0.77;;;;;;;4.57;100.00;98471.69;5033428;28;20787;-43
2024/01/23 08:16:59;;;;;;;7.18;2.03;;;;;;;4.51;100.00;98479.47;5020842;28;20052;-44
2024/01/23 08:19:27;;;;;;;7.03;1.05;;;;;;;4.63;100.00;98477.16;5028084;28;20518;-42
2024/01/23 08:21:53;;;;;;;6.68;1.52;;;;;;;4.64;100.00;98469.94;5031809;28;20068;-43
2024/01/23 08:24:20;;;;;;;5.55;1.30;;;;;;;4.59;100.00;98472.31;5038973;28;20045;-42
2024/01/23 08:26:47;;;;;;;8.70;1.27;;;;;;;4.66;100.00;98471.41;5043844;28;20057;-43
2024/01/23 08:29:14;;;;;;;12.23;1.50;;;;;;;4.73;100.00;98476.88;5028411;28;20049;-42
2024/01/23 08:31:41;;;;;;;6.22;1.20;;;;;;;4.82;100.00;98483.78;5043220;28;20049;-68
2024/01/23 08:34:07;;;;;;;11.57;1.98;;;;;;;4.89;100.00;98491.06;5040120;28;20124;-65
2024/01/23 08:36:34;;;;;;;3.55;0.80;;;;;;;4.77;100.00;98488.06;5034464;28;20045;-63
2024/01/23 08:39:01;;;;;;;4.80;1.02;;;;;;;4.77;100.00;98496.94;5043137;28;20630;-66
2024/01/23 08:41:27;;;;;;;6.30;1.25;;;;;;;4.81;100.00;98500.06;5033007;28;20123;-62
2024/01/23 08:43:54;;;;;;;8.70;1.45;;;;;;;4.97;100.00;98492.84;5033078;28;20037;-63
2024/01/23 08:46:22;;;;;;;6.72;1.20;;;;;;;4.91;100.00;98505.16;5043084;28;20055;-65
2024/01/23 08:48:49;;;;;;;9.20;1.45;;;;;;;5.00;100.00;98506.72;5040015;28;20523;-66
2024/01/23 08:51:16;;;;;;;6.72;1.30;;;;;;;5.08;100.00;98503.91;5033300;28;20819;-66
2024/01/23 08:53:44;;;;;;;9.63;1.88;;;;;;;5.18;100.00;98502.78;5034358;28;20041;-67
2024/01/23 08:56:11;;;;;;;7.45;1.13;;;;;;;5.30;100.00;98512.00;5038507;28;20166;-63
2024/01/23 08:58:38;;;;;;;4.95;1.50;;;;;;;5.32;100.00;98517.19;5041718;28;20071;-62
2024/01/23 09:01:04;;;;;;;4.53;1.23;;;;;;;5.18;100.00;98518.91;5034780;28;20033;-64
2024/01/23 09:03:33;;;;;;;9.18;2.25;;;;;;;5.16;100.00;98521.75;5031431;28;20053;-61
2024/01/23 09:05:59;;;;;;;8.90;1.35;;;;;;;4.98;100.00;98529.41;5032679;28;20174;-61
2024/01/23 09:08:26;;;;;;;6.35;1.25;;;;;;;5.00;100.00;98530.03;5041617;28;20077;-63
2024/01/23 09:10:53;;;;;;;8.90;1.42;;;;;;;5.05;100.00;98539.19;5027943;28;20568;-62
2024/01/23 09:13:19;;;;;;;7.78;1.65;;;;;;;5.22;100.00;98541.66;5035919;28;20568;-67
2024/01/23 09:15:45;;;;;;;5.00;1.08;;;;;;;5.13;100.00;98542.78;5036981;28;20052;-63
2024/01/23 09:18:12;;;;;;;4.40;1.10;;;;;;;5.20;100.00;98541.03;5041419;28;20124;-63
2024/01/23 09:20:39;;;;;;;5.93;1.50;;;;;;;5.27;100.00;98539.25;5043365;28;20098;-62
2024/01/23 09:23:06;;;;;;;6.03;1.35;;;;;;;5.29;100.00;98549.81;5035003;28;20049;-63
2024/01/23 09:25:32;;;;;;;6.93;1.33;;;;;;;5.18;100.00;98559.19;5038058;28;20049;-66
2024/01/23 09:27:59;;;;;;;4.20;0.90;;;;;;;5.10;100.00;98559.28;5036164;28;20063;-62
2024/01/23 09:30:26;;;;;;;5.28;0.80;;;;;;;5.11;100.00;98561.78;5045031;28;20049;-61
2024/01/23 09:32:54;;;;;;;6.63;1.63;;;;;;;5.26;100.00;98572.50;5035258;28;20115;-64
2024/01/23 09:35:21;;;;;;;2.70;0.80;;;;;;;5.41;100.00;98574.31;5028677;28;20063;-61
2024/01/23 09:37:48;;;;;;;5.72;0.95;;;;;;;5.43;100.00;98588.41;5028835;28;20723;-62
2024/01/23 09:40:15;;;;;;;5.38;1.02;;;;;;;5.47;100.00;98589.69;5019825;28;20144;-60
2024/01/23 09:42:43;;;;;;;4.78;1.77;;;;;;;5.45;100.00;98603.31;5041572;28;20040;-62
2024/01/23 09:45:15;;;;;;;3.97;0.65;;;;;;;5.51;100.00;98603.56;5037945;28;20057;-61
2024/01/23 09:47:44;;;;;;;3.38;0.73;;;;;;;5.65;100.00;98607.25;5031630;28;20053;-62
2024/01/23 09:50:13;;;;;;;3.50;0.60;;;;;;;5.64;100.00;98603.72;5030189;28;20045;-61
2024/01/23 09:52:44;;;;;;;3.58;0.75;;;;;;;5.69;100.00;98598.63;5029166;28;20064;-64
2024/01/23 09:55:12;;;;;;;5.30;0.90;;;;;;;5.99;100.00;98595.00;5022588;28;21477;-63
2024/01/23 09:57:39;;;;;;;3.25;0.88;;;;;;;6.04;100.00;98589.91;5026403;28;20037;-64
2024/01/23 10:00:07;;;;;;;7.00;1.23;;;;;;;6.27;100.00;98585.34;5031984;28;20149;-63
2024/01/23 10:02:42;;;;;;;7.80;1.17;;;;;;;6.47;100.00;98591.72;5020273;28;20524;-65
2024/01/23 10:05:15;;;;;;;7.35;1.15;;;;;;;6.51;100.00;98589.47;5033631;28;20044;-62
2024/01/23 10:07:42;;;;;;;7.22;1.13;;;;;;;6.48;100.00;98592.53;5034233;28;20072;-64
2024/01/23 10:10:17;;;;;;;6.78;1.35;;;;;;;6.41;100.00;98603.25;5036033;28;20041;-62
2024/01/23 10:12:47;;;;;;;9.15;1.65;;;;;;;6.60;100.00;98590.16;5021998;28;20042;-62
2024/01/23 10:15:18;;;;;;;6.88;1.40;;;;;;;6.55;100.00;98606.88;5039708;28;20065;-65
2024/01/23 10:17:45;;;;;;;6.10;1.42;;;;;;;6.43;100.00;98611.13;5033417;28;20052;-63
2024/01/23 10:20:14;;;;;;;6.00;1.13;;;;;;;6.39;100.00;98613.38;5035872;28;20030;-62
2024/01/23 10:22:43;;;;;;;4.80;1.33;;;;;;;6.55;100.00;98623.03;5045772;28;20048;-62
2024/01/23 10:25:13;;;;;;;6.03;1.15;;;;;;;6.52;100.00;98615.34;5023139;28;20143;-63
2024/01/23 10:27:41;;;;;;;9.52;1.20;;;;;;;6.56;100.00;98613.09;5036303;28;20056;-62
2024/01/23 10:30:08;;;;;;;7.05;1.50;;;;;;;6.47;100.00;98615.09;5028699;28;20050;-62
2024/01/23 10:32:36;;;;;;;5.22;1.10;;;;;;;6.47;100.00;98609.72;5006306;28;20657;-61
2024/01/23 10:35:04;;;;;;;8.77;1.35;;;;;;;6.31;100.00;98621.59;5024782;28;20147;-54
2024/01/23 10:37:30;;;;;;;7.75;1.27;;;;;;;6.30;100.00;98615.38;5048632;28;20045;-58
2024/01/23 10:39:59;;;;;;;4.90;1.00;;;;;;;6.33;100.00;98615.00;5034157;28;20132;-65
2024/01/23 10:42:26;;;;;;;7.05;1.15;;;;;;;6.34;100.00;98607.75;5041805;28;20081;-64
2024/01/23 10:44:54;;;;;;;5.90;1.13;;;;;;;6.24;100.00;98610.78;5047431;28;21535;-64
2024/01/23 10:47:20;;;;;;;7.90;1.58;;;;;;;6.26;100.00;98621.34;5046916;28;20040;-64
2024/01/23 10:49:47;;;;;;;10.20;1.33;;;;;;;6.23;100.00;98614.50;5045325;28;20091;-62
2024/01/23 10:52:18;;;;;;;10.30;1.67;;;;;;;6.22;100.00;98607.44;5048168;28;20660;-62
2024/01/23 10:54:48;;;;;;;4.70;1.20;;;;;;;5.94;100.00;98610.88;5041614;28;20401;-61
2024/01/23 10:57:22;;;;;;;7.10;1.23;;;;;;;5.81;100.00;98608.84;5049838;28;20408;-61
2024/01/23 10:59:50;;;;;;;8.73;1.70;;;;;;;5.62;100.00;98604.94;5038221;28;20104;-60
2024/01/23 11:02:38;;;;;;;7.93;1.73;;;;;;;5.59;100.00;98612.38;5038685;28;20033;-59
2024/01/23 11:05:05;;;;;;;10.68;1.40;;;;;;;5.67;100.00;98595.28;5040533;28;20044;-61
2024/01/23 11:07:51;;;;;;;7.60;1.45;;;;;;;5.57;100.00;98609.00;5041554;28;20425;-60
2024/01/23 11:10:26;;;;;;;9.18;1.50;;;;;;;5.64;100.00;98594.84;5044470;28;20579;-61
2024/01/23 11:13:10;;;;;;;11.98;1.90;;;;;;;5.45;100.00;98599.78;5032718;28;20041;-60
2024/01/23 11:15:37;;;;;;;7.43;1.30;;;;;;;5.54;100.00;98603.19;5036783;28;20045;-60
2024/01/23 11:18:39;;;;;;;9.18;1.40;;;;;;;5.65;100.00;98601.88;5032574;28;20128;-60
2024/01/23 11:23:36;;;;;;;8.57;1.55;;;;;;;6.02;100.00;98608.06;5034440;28;20734;-61
2024/01/23 11:26:26;;;;;;;4.97;1.35;;;;;;;6.09;100.00;98600.91;5028424;28;20068;-60
2024/01/23 11:28:58;;;;;;;10.10;1.40;;;;;;;6.13;100.00;98600.53;5036299;28;20065;-62
2024/01/23 11:31:26;;;;;;;;;;;;;;;6.19;100.00;98608.66;5039148;28;20049;-60
2024/01/23 11:34:22;;;;;;;9.80;1.95;;;;;;;6.18;100.00;98598.06;5041176;28;21429;-67
2024/01/23 11:36:49;;;;;;;7.32;1.58;;;;;;;6.18;100.00;98592.69;5034330;28;20112;-66
2024/01/23 11:39:20;;;;;;;9.05;1.35;;;;;;;6.18;100.00;98593.53;5039619;28;20466;-61
2024/01/23 11:41:48;;;;;;;5.22;1.35;;;;;;;6.20;100.00;98599.53;5039365;28;20483;-62
2024/01/23 11:44:16;;;;;;;6.82;1.15;;;;;;;6.29;100.00;98621.78;5037704;28;20123;-62
2024/01/23 11:46:47;;;;;;;6.80;1.33;;;;;;;6.37;100.00;98626.19;5033458;28;20098;-63